createdAt,value
2019-04-06T00:00:05.423Z,21.20
2019-04-06T00:01:10.692Z,17.93
2019-04-06T00:02:21.600Z,18.00
2019-04-06T00:03:25.321Z,19.67
2019-04-06T00:04:28.953Z,17.33
2019-04-06T00:05:32.640Z,19.83
2019-04-06T00:06:36.256Z,24.03
2019-04-06T00:07:39.897Z,18.20
2019-04-06T00:08:43.471Z,17.97
2019-04-06T00:09:47.603Z,17.73
2019-04-06T00:10:51.280Z,18.10
2019-04-06T00:11:54.907Z,18.13
2019-04-06T00:12:58.634Z,17.17
2019-04-06T00:14:02.285Z,23.03
2019-04-06T00:15:07.556Z,18.53
2019-04-06T00:16:11.304Z,16.80
2019-04-06T00:17:14.883Z,20.20
2019-04-06T00:18:18.464Z,17.13
2019-04-06T00:19:22.122Z,18.93
2019-04-06T00:20:25.786Z,16.97
2019-04-06T00:21:29.481Z,16.10
2019-04-06T00:22:33.134Z,19.63
2019-04-06T00:23:36.768Z,20.07
2019-04-06T00:24:40.389Z,20.40
2019-04-06T00:25:45.004Z,18.00
2019-04-06T00:26:48.739Z,20.63
2019-04-06T00:27:52.455Z,17.67
2019-04-06T00:28:56.427Z,16.03
2019-04-06T00:29:59.996Z,17.60
2019-04-06T00:31:21.426Z,17.03
2019-04-06T00:32:29.557Z,17.27
2019-04-06T00:33:33.678Z,17.57
2019-04-06T00:34:37.730Z,17.67
2019-04-06T00:35:41.393Z,18.47
2019-04-06T00:36:45.051Z,16.40
2019-04-06T00:37:48.726Z,17.07
2019-04-06T00:38:52.353Z,15.83
2019-04-06T00:39:55.955Z,17.47
2019-04-06T00:40:59.625Z,19.93
2019-04-06T00:42:03.569Z,21.70
2019-04-06T00:43:07.243Z,15.37
2019-04-06T00:44:10.897Z,15.53
2019-04-06T00:45:14.632Z,18.27
2019-04-06T00:46:18.300Z,17.13
2019-04-06T00:47:21.978Z,18.67
2019-04-06T00:48:25.665Z,19.33
2019-04-06T00:49:29.286Z,19.17
2019-04-06T00:50:32.868Z,19.10
2019-04-06T00:51:36.523Z,21.67
2019-04-06T00:52:40.239Z,18.00
2019-04-06T00:53:43.936Z,19.57
2019-04-06T00:54:47.470Z,19.23
2019-04-06T00:55:55.813Z,20.30
2019-04-06T00:56:56.494Z,17.67
2019-04-06T00:58:00.134Z,17.13
2019-04-06T00:59:03.829Z,16.70
2019-04-06T01:00:08.923Z,16.30
2019-04-06T01:01:12.575Z,17.13
2019-04-06T01:02:16.159Z,19.37
2019-04-06T01:03:19.803Z,16.83
2019-04-06T01:04:23.941Z,13.93
2019-04-06T01:05:27.677Z,17.43
2019-04-06T01:06:31.304Z,19.33
2019-04-06T01:07:34.881Z,15.47
2019-04-06T01:08:38.503Z,15.73
2019-04-06T01:09:42.153Z,17.30
2019-04-06T01:10:45.785Z,14.73
2019-04-06T01:11:49.440Z,16.63
2019-04-06T01:12:53.162Z,22.43
2019-04-06T01:13:56.880Z,16.40
2019-04-06T01:15:00.536Z,16.80
2019-04-06T01:16:04.363Z,14.50
2019-04-06T01:17:08.009Z,15.87
2019-04-06T01:18:12.015Z,17.80
2019-04-06T01:19:15.586Z,16.73
2019-04-06T01:20:19.276Z,20.90
2019-04-06T01:21:23.062Z,18.30
2019-04-06T01:22:26.798Z,16.63
2019-04-06T01:23:30.436Z,16.93
2019-04-06T01:24:34.017Z,17.67
2019-04-06T01:25:37.767Z,15.53
2019-04-06T01:26:41.478Z,17.57
2019-04-06T01:27:46.019Z,17.90
2019-04-06T01:28:49.682Z,16.53
2019-04-06T01:29:53.258Z,15.50
2019-04-06T01:30:56.977Z,20.70
2019-04-06T01:32:00.570Z,15.83
2019-04-06T01:33:04.196Z,16.80
2019-04-06T01:34:07.830Z,16.23
2019-04-06T01:35:11.481Z,17.07
2019-04-06T01:36:15.140Z,19.30
2019-04-06T01:37:18.719Z,18.90
2019-04-06T01:38:22.356Z,17.00
2019-04-06T01:39:26.061Z,14.63
2019-04-06T01:40:30.075Z,16.23
2019-04-06T01:41:33.667Z,18.83
2019-04-06T01:42:37.301Z,19.43
2019-04-06T01:43:40.968Z,16.50
2019-04-06T01:44:44.605Z,20.43
2019-04-06T01:45:48.236Z,19.53
2019-04-06T01:46:51.975Z,17.03
2019-04-06T01:47:55.622Z,16.00
2019-04-06T01:48:59.271Z,19.50
2019-04-06T01:50:02.892Z,19.57
2019-04-06T01:51:06.962Z,16.63
2019-04-06T01:52:10.639Z,17.93
2019-04-06T01:53:14.271Z,20.40
2019-04-06T01:54:17.909Z,17.07
2019-04-06T01:55:21.474Z,16.90
2019-04-06T01:56:25.156Z,16.33
2019-04-06T01:57:28.844Z,12.63
2019-04-06T01:58:32.482Z,19.47
2019-04-06T01:59:36.183Z,16.70
2019-04-06T02:00:41.481Z,18.80
2019-04-06T02:01:46.691Z,18.37
2019-04-06T02:02:51.951Z,19.37
2019-04-06T02:03:55.589Z,18.30
2019-04-06T02:04:59.306Z,18.17
2019-04-06T02:06:03.416Z,17.40
2019-04-06T02:07:07.037Z,18.27
2019-04-06T02:08:10.729Z,20.13
2019-04-06T02:09:14.366Z,20.33
2019-04-06T02:10:18.287Z,20.40
2019-04-06T02:11:22.317Z,21.20
2019-04-06T02:12:25.936Z,24.60
2019-04-06T02:13:29.707Z,19.53
2019-04-06T02:14:33.348Z,22.17
2019-04-06T02:15:36.961Z,23.20
2019-04-06T02:16:40.921Z,21.07
2019-04-06T02:17:44.758Z,20.03
2019-04-06T02:18:48.405Z,21.03
2019-04-06T02:19:52.022Z,24.40
2019-04-06T02:20:55.756Z,22.10
2019-04-06T02:21:59.381Z,19.20
2019-04-06T02:23:03.071Z,22.93
2019-04-06T02:24:06.842Z,23.33
2019-04-06T02:25:10.749Z,19.03
2019-04-06T02:26:14.306Z,21.63
2019-04-06T02:27:17.936Z,22.17
2019-04-06T02:28:21.441Z,23.50
2019-04-06T02:29:25.389Z,25.80
2019-04-06T02:30:30.662Z,30.93
2019-04-06T02:31:44.703Z,32.63
2019-04-06T02:32:56.252Z,32.47
2019-04-06T02:34:04.505Z,33.63
2019-04-06T02:35:21.915Z,26.10
2019-04-06T02:36:36.379Z,34.83
2019-04-06T02:37:44.345Z,27.90
2019-04-06T02:38:53.165Z,29.83
2019-04-06T02:39:58.466Z,27.70
2019-04-06T02:41:06.663Z,24.57
2019-04-06T02:42:21.249Z,28.37
2019-04-06T02:43:26.553Z,25.63
2019-04-06T02:44:30.181Z,25.83
2019-04-06T02:45:33.808Z,27.23
2019-04-06T02:46:37.581Z,24.70
2019-04-06T02:47:41.377Z,22.23
2019-04-06T02:48:45.093Z,24.80
2019-04-06T02:49:48.975Z,20.63
2019-04-06T02:50:52.768Z,22.53
2019-04-06T02:51:56.528Z,22.47
2019-04-06T02:53:00.263Z,23.77
2019-04-06T02:54:03.904Z,23.60
2019-04-06T02:55:07.639Z,21.97
2019-04-06T02:56:11.582Z,23.13
2019-04-06T02:57:15.362Z,25.10
2019-04-06T02:58:18.985Z,23.63
2019-04-06T02:59:22.727Z,29.23
2019-04-06T03:00:26.691Z,25.07
2019-04-06T03:01:30.387Z,26.80
2019-04-06T03:02:34.130Z,23.57
2019-04-06T03:03:37.776Z,24.17
2019-04-06T03:04:41.449Z,23.40
2019-04-06T03:05:45.089Z,25.07
2019-04-06T03:06:48.736Z,30.90
2019-04-06T03:07:52.499Z,25.10
2019-04-06T03:08:56.151Z,22.00
2019-04-06T03:09:59.801Z,26.50
2019-04-06T03:11:03.457Z,22.13
2019-04-06T03:12:07.106Z,30.40
2019-04-06T03:13:10.936Z,24.33
2019-04-06T03:14:15.380Z,22.40
2019-04-06T03:15:18.987Z,24.10
2019-04-06T03:16:22.649Z,28.43
2019-04-06T03:17:26.309Z,26.20
2019-04-06T03:18:30.391Z,28.27
2019-04-06T03:19:34.074Z,25.20
2019-04-06T03:20:37.720Z,24.27
2019-04-06T03:21:41.366Z,23.33
2019-04-06T03:22:45.030Z,24.43
2019-04-06T03:23:51.254Z,23.60
2019-04-06T03:24:54.062Z,31.90
2019-04-06T03:25:57.831Z,27.17
2019-04-06T03:27:02.829Z,25.63
2019-04-06T03:28:07.050Z,31.20
2019-04-06T03:29:10.715Z,28.67
2019-04-06T03:30:14.658Z,29.23
2019-04-06T03:31:23.407Z,31.77
2019-04-06T03:32:23.674Z,23.40
2019-04-06T03:33:27.240Z,31.80
2019-04-06T03:34:31.373Z,26.63
2019-04-06T03:35:35.346Z,26.90
2019-04-06T03:36:38.981Z,28.60
2019-04-06T03:37:42.725Z,33.97
2019-04-06T03:38:46.386Z,26.70
2019-04-06T03:39:50.040Z,26.27
2019-04-06T03:40:53.680Z,26.23
2019-04-06T03:41:57.577Z,27.20
2019-04-06T03:43:01.406Z,28.70
2019-04-06T03:44:05.302Z,27.43
2019-04-06T03:45:08.962Z,26.80
2019-04-06T03:46:12.637Z,28.33
2019-04-06T03:47:16.277Z,27.00
2019-04-06T03:48:20.079Z,29.80
2019-04-06T03:49:23.737Z,30.13
2019-04-06T03:50:27.398Z,33.87
2019-04-06T03:51:31.050Z,29.40
2019-04-06T03:52:34.716Z,26.50
2019-04-06T03:53:39.093Z,32.70
2019-04-06T03:54:42.732Z,31.97
2019-04-06T03:55:46.296Z,30.20
2019-04-06T03:56:49.960Z,29.30
2019-04-06T03:57:53.614Z,36.50
2019-04-06T03:58:57.503Z,33.10
2019-04-06T04:00:01.574Z,33.57
2019-04-06T04:01:05.425Z,35.00
2019-04-06T04:02:09.068Z,27.87
2019-04-06T04:03:12.687Z,30.47
2019-04-06T04:04:16.568Z,25.90
2019-04-06T04:05:20.268Z,28.47
2019-04-06T04:06:23.930Z,28.63
2019-04-06T04:07:27.655Z,29.37
2019-04-06T04:08:31.346Z,30.43
2019-04-06T04:09:35.086Z,27.27
2019-04-06T04:10:39.726Z,25.67
2019-04-06T04:11:43.642Z,28.10
2019-04-06T04:12:47.379Z,27.77
2019-04-06T04:13:51.031Z,25.13
2019-04-06T04:14:54.838Z,29.83
2019-04-06T04:15:58.565Z,30.10
2019-04-06T04:17:02.423Z,28.47
2019-04-06T04:18:08.953Z,33.07
2019-04-06T04:19:12.856Z,26.67
2019-04-06T04:20:19.483Z,28.83
2019-04-06T04:21:23.168Z,29.20
2019-04-06T04:22:30.490Z,25.90
2019-04-06T04:23:34.247Z,29.53
2019-04-06T04:24:38.457Z,21.03
2019-04-06T04:25:42.144Z,26.10
2019-04-06T04:26:46.124Z,26.90
2019-04-06T04:27:49.933Z,27.17
2019-04-06T04:28:53.811Z,26.60
2019-04-06T04:29:57.580Z,23.53
2019-04-06T04:31:01.436Z,22.13
2019-04-06T04:32:05.167Z,26.23
2019-04-06T04:33:08.795Z,28.53
2019-04-06T04:34:12.579Z,23.60
2019-04-06T04:35:18.555Z,23.03
2019-04-06T04:36:21.701Z,28.37
2019-04-06T04:37:25.349Z,26.03
2019-04-06T04:38:29.472Z,22.80
2019-04-06T04:39:33.575Z,24.60
2019-04-06T04:40:37.207Z,26.47
2019-04-06T04:41:40.848Z,27.80
2019-04-06T04:42:44.491Z,28.53
2019-04-06T04:43:48.280Z,26.00
2019-04-06T04:44:51.972Z,29.33
2019-04-06T04:45:55.570Z,24.17
2019-04-06T04:46:59.360Z,25.40
2019-04-06T04:48:03.169Z,24.30
2019-04-06T04:49:07.115Z,21.30
2019-04-06T04:50:11.466Z,27.97
2019-04-06T04:51:15.181Z,23.23
2019-04-06T04:52:18.844Z,26.53
2019-04-06T04:53:23.563Z,24.57
2019-04-06T04:54:27.207Z,27.00
2019-04-06T04:55:30.964Z,25.43
2019-04-06T04:56:34.603Z,24.43
2019-04-06T04:57:41.183Z,21.97
2019-04-06T04:58:43.690Z,22.63
2019-04-06T04:59:47.599Z,25.57
2019-04-06T05:00:51.370Z,26.87
2019-04-06T05:01:55.086Z,25.73
2019-04-06T05:02:58.714Z,29.60
2019-04-06T05:04:02.355Z,32.83
2019-04-06T05:05:09.291Z,29.10
2019-04-06T05:06:12.417Z,27.33
2019-04-06T05:07:16.274Z,26.37
2019-04-06T05:08:19.956Z,24.93
2019-04-06T05:09:23.579Z,32.47
2019-04-06T05:10:27.215Z,36.03
2019-04-06T05:11:30.950Z,28.17
2019-04-06T05:12:34.622Z,30.50
2019-04-06T05:13:38.278Z,30.83
2019-04-06T05:15:01.378Z,28.23
2019-04-06T05:16:12.881Z,28.23
2019-04-06T05:17:16.911Z,25.90
2019-04-06T05:18:20.591Z,26.27
2019-04-06T05:19:24.155Z,26.30
2019-04-06T05:20:27.938Z,29.20
2019-04-06T05:21:31.789Z,28.30
2019-04-06T05:22:35.505Z,34.60
2019-04-06T05:23:39.262Z,32.83
2019-04-06T05:24:42.895Z,31.80
2019-04-06T05:25:46.530Z,28.90
2019-04-06T05:26:50.209Z,29.00
2019-04-06T05:27:53.905Z,34.53
2019-04-06T05:28:57.723Z,31.90
2019-04-06T05:30:01.313Z,34.07
2019-04-06T05:31:05.227Z,34.60
2019-04-06T05:32:09.024Z,34.60
2019-04-06T05:33:12.723Z,30.30
2019-04-06T05:34:16.347Z,28.77
2019-04-06T05:35:20.009Z,32.83
2019-04-06T05:36:23.660Z,40.27
2019-04-06T05:37:27.377Z,42.00
2019-04-06T05:38:31.010Z,46.63
2019-04-06T05:39:34.694Z,36.33
2019-04-06T05:40:38.281Z,33.93
2019-04-06T05:41:41.931Z,38.80
2019-04-06T05:42:45.990Z,29.60
2019-04-06T05:43:49.636Z,28.50
2019-04-06T05:44:53.300Z,26.97
2019-04-06T05:45:57.021Z,29.13
2019-04-06T05:47:00.856Z,27.93
2019-04-06T05:48:04.930Z,30.73
2019-04-06T05:49:08.726Z,29.03
2019-04-06T05:50:12.481Z,33.77
2019-04-06T05:51:16.144Z,28.83
2019-04-06T05:52:19.958Z,30.73
2019-04-06T05:53:23.714Z,29.60
2019-04-06T05:54:27.371Z,35.13
2019-04-06T05:55:31.033Z,28.07
2019-04-06T05:56:34.887Z,33.37
2019-04-06T05:57:38.587Z,28.10
2019-04-06T05:58:44.239Z,31.67
2019-04-06T05:59:47.437Z,30.53
2019-04-06T06:00:51.187Z,30.20
2019-04-06T06:01:54.838Z,32.40
2019-04-06T06:02:58.591Z,30.23
2019-04-06T06:04:02.250Z,31.70
2019-04-06T06:05:06.114Z,34.20
2019-04-06T06:06:12.335Z,32.90
2019-04-06T06:07:15.147Z,33.73
2019-04-06T06:08:18.873Z,33.80
2019-04-06T06:09:22.510Z,33.40
2019-04-06T06:10:26.629Z,33.10
2019-04-06T06:11:30.627Z,28.70
2019-04-06T06:12:34.637Z,35.03
2019-04-06T06:13:39.430Z,33.17
2019-04-06T06:14:43.385Z,34.43
2019-04-06T06:15:47.031Z,32.90
2019-04-06T06:16:50.698Z,34.43
2019-04-06T06:17:54.537Z,32.67
2019-04-06T06:18:58.395Z,32.53
2019-04-06T06:20:02.099Z,35.43
2019-04-06T06:21:05.721Z,29.67
2019-04-06T06:22:11.795Z,31.13
2019-04-06T06:23:18.447Z,33.00
2019-04-06T06:24:22.113Z,31.17
2019-04-06T06:25:27.851Z,31.93
2019-04-06T06:26:31.177Z,33.00
2019-04-06T06:27:35.036Z,36.57
2019-04-06T06:28:42.360Z,31.87
2019-04-06T06:29:46.023Z,29.67
2019-04-06T06:30:49.719Z,35.20
2019-04-06T06:31:53.367Z,31.63
2019-04-06T06:32:57.001Z,34.67
2019-04-06T06:34:00.732Z,31.83
2019-04-06T06:35:05.284Z,35.63
2019-04-06T06:36:08.958Z,34.53
2019-04-06T06:37:12.802Z,33.47
2019-04-06T06:38:16.434Z,31.00
2019-04-06T06:39:20.095Z,33.93
2019-04-06T06:40:23.779Z,33.13
2019-04-06T06:41:27.427Z,36.07
2019-04-06T06:42:31.173Z,36.73
2019-04-06T06:43:34.839Z,37.90
2019-04-06T06:44:38.487Z,38.80
2019-04-06T06:45:43.673Z,35.93
2019-04-06T06:46:47.424Z,40.73
2019-04-06T06:47:51.080Z,39.77
2019-04-06T06:48:55.105Z,33.87
2019-04-06T06:49:58.745Z,31.13
2019-04-06T06:51:02.408Z,34.20
2019-04-06T06:52:06.091Z,33.47
2019-04-06T06:53:09.745Z,32.03
2019-04-06T06:54:13.400Z,36.50
2019-04-06T06:55:17.190Z,33.70
2019-04-06T06:56:20.861Z,34.80
2019-04-06T06:57:24.564Z,26.73
2019-04-06T06:58:28.227Z,29.97
2019-04-06T06:59:31.865Z,30.30
2019-04-06T07:00:35.533Z,31.00
2019-04-06T07:01:39.237Z,29.47
2019-04-06T07:02:42.977Z,28.97
2019-04-06T07:03:46.632Z,28.40
2019-04-06T07:04:50.321Z,27.53
2019-04-06T07:05:54.153Z,26.50
2019-04-06T07:06:57.921Z,25.27
2019-04-06T07:08:01.571Z,27.20
2019-04-06T07:09:07.655Z,35.07
2019-04-06T07:10:11.508Z,31.90
2019-04-06T07:11:15.101Z,29.57
2019-04-06T07:12:18.953Z,29.47
2019-04-06T07:13:22.630Z,28.67
2019-04-06T07:14:26.271Z,30.83
2019-04-06T07:15:29.982Z,29.13
2019-04-06T07:16:33.719Z,33.67
2019-04-06T07:17:37.408Z,35.13
2019-04-06T07:18:41.059Z,30.27
2019-04-06T07:19:44.863Z,30.40
2019-04-06T07:20:48.591Z,37.13
2019-04-06T07:21:52.289Z,38.57
2019-04-06T07:22:56.005Z,32.63
2019-04-06T07:23:59.646Z,33.50
2019-04-06T07:25:03.279Z,30.43
2019-04-06T07:26:07.010Z,32.80
2019-04-06T07:27:11.022Z,36.57
2019-04-06T07:28:14.692Z,31.27
2019-04-06T07:29:18.338Z,30.07
2019-04-06T07:30:22.447Z,32.93
2019-04-06T07:31:26.068Z,36.37
2019-04-06T07:32:29.760Z,32.40
2019-04-06T07:33:33.399Z,36.93
2019-04-06T07:34:37.171Z,31.90
2019-04-06T07:35:40.815Z,33.73
2019-04-06T07:36:44.451Z,33.03
2019-04-06T07:37:48.153Z,35.27
2019-04-06T07:38:51.865Z,29.30
2019-04-06T07:39:55.496Z,32.77
2019-04-06T07:40:59.235Z,31.50
2019-04-06T07:42:03.084Z,31.87
2019-04-06T07:43:06.783Z,31.07
2019-04-06T07:44:10.500Z,30.37
2019-04-06T07:45:14.760Z,25.33
2019-04-06T07:46:18.487Z,34.10
2019-04-06T07:47:22.179Z,27.10
2019-04-06T07:48:26.027Z,29.13
2019-04-06T07:49:29.670Z,24.63
2019-04-06T07:50:33.340Z,27.43
2019-04-06T07:51:36.997Z,21.57
2019-04-06T07:52:40.978Z,23.70
2019-04-06T07:53:44.973Z,26.23
2019-04-06T07:54:48.603Z,26.93
2019-04-06T07:55:52.254Z,25.17
2019-04-06T07:56:55.918Z,25.37
2019-04-06T07:57:59.593Z,24.70
2019-04-06T07:59:03.211Z,26.00
2019-04-06T08:00:11.133Z,29.83
2019-04-06T08:01:14.791Z,28.53
2019-04-06T08:02:18.540Z,28.53
2019-04-06T08:03:22.215Z,25.37
2019-04-06T08:04:25.946Z,26.40
2019-04-06T08:05:29.918Z,25.57
2019-04-06T08:06:33.721Z,24.67
2019-04-06T08:07:37.664Z,23.80
2019-04-06T08:08:41.377Z,22.97
2019-04-06T08:09:45.123Z,26.77
2019-04-06T08:10:49.318Z,28.93
2019-04-06T08:11:53.265Z,23.70
2019-04-06T08:12:57.013Z,24.20
2019-04-06T08:14:00.617Z,25.47
2019-04-06T08:15:06.549Z,22.80
2019-04-06T08:16:10.844Z,19.77
2019-04-06T08:17:14.492Z,23.67
2019-04-06T08:18:18.247Z,22.00
2019-04-06T08:19:22.040Z,24.40
2019-04-06T08:20:25.835Z,26.17
2019-04-06T08:21:29.500Z,26.90
2019-04-06T08:22:33.147Z,22.97
2019-04-06T08:23:36.802Z,22.17
2019-04-06T08:24:40.532Z,22.77
2019-04-06T08:25:45.219Z,19.57
2019-04-06T08:26:48.897Z,25.00
2019-04-06T08:27:52.780Z,23.80
2019-04-06T08:29:01.947Z,21.87
2019-04-06T08:30:01.990Z,22.63
2019-04-06T08:31:05.724Z,22.07
2019-04-06T08:32:09.401Z,19.13
2019-04-06T08:33:13.071Z,22.23
2019-04-06T08:34:18.215Z,20.43
2019-04-06T08:35:26.182Z,22.80
2019-04-06T08:36:27.190Z,19.37
2019-04-06T08:37:31.290Z,21.17
2019-04-06T08:38:34.968Z,20.17
2019-04-06T08:39:38.657Z,22.67
2019-04-06T08:40:42.348Z,20.93
2019-04-06T08:41:46.002Z,19.80
2019-04-06T08:42:49.628Z,20.30
2019-04-06T08:43:53.280Z,21.20
2019-04-06T08:44:57.206Z,20.27
2019-04-06T08:46:00.859Z,19.47
2019-04-06T08:47:04.494Z,24.03
2019-04-06T08:48:08.034Z,18.00
2019-04-06T08:49:11.698Z,18.03
2019-04-06T08:50:15.447Z,18.97
2019-04-06T08:51:19.102Z,16.60
2019-04-06T08:52:22.755Z,15.47
2019-04-06T08:53:26.452Z,15.63
2019-04-06T08:54:30.026Z,15.97
2019-04-06T08:55:33.693Z,16.20
2019-04-06T08:56:37.705Z,18.13
2019-04-06T08:57:41.416Z,20.40
2019-04-06T08:58:45.092Z,18.90
2019-04-06T08:59:48.684Z,16.40
2019-04-06T09:00:52.653Z,16.97
2019-04-06T09:01:56.280Z,15.93
2019-04-06T09:02:59.935Z,14.90
2019-04-06T09:04:04.025Z,14.20
2019-04-06T09:05:07.792Z,15.60
2019-04-06T09:06:11.444Z,15.97
2019-04-06T09:07:15.092Z,18.33
2019-04-06T09:08:18.745Z,14.58
2019-04-06T09:09:22.453Z,15.63
2019-04-06T09:10:26.175Z,13.40
2019-04-06T09:11:29.868Z,15.85
2019-04-06T09:12:33.458Z,17.35
2019-04-06T09:13:37.040Z,15.65
2019-04-06T09:14:40.732Z,15.05
2019-04-06T09:15:44.390Z,16.37
2019-04-06T09:16:47.963Z,16.10
2019-04-06T09:17:51.741Z,16.30
2019-04-06T09:18:55.430Z,13.78
2019-04-06T09:19:59.312Z,16.30
2019-04-06T09:21:02.986Z,13.05
2019-04-06T09:22:06.645Z,15.78
2019-04-06T09:23:10.375Z,15.23
2019-04-06T09:24:14.269Z,13.85
2019-04-06T09:25:18.145Z,14.60
2019-04-06T09:26:21.713Z,15.23
2019-04-06T09:27:25.364Z,11.75
2019-04-06T09:28:29.026Z,13.85
2019-04-06T09:29:32.864Z,12.05
2019-04-06T09:30:36.708Z,12.40
2019-04-06T09:31:40.385Z,13.90
2019-04-06T09:32:44.121Z,12.58
2019-04-06T09:33:47.819Z,15.32
2019-04-06T09:34:51.482Z,16.55
2019-04-06T09:35:55.229Z,11.78
2019-04-06T09:36:58.941Z,11.00
2019-04-06T09:38:04.146Z,15.28
2019-04-06T09:39:07.838Z,15.03
2019-04-06T09:40:11.769Z,10.70
2019-04-06T09:41:15.449Z,16.07
2019-04-06T09:42:19.089Z,14.65
2019-04-06T09:43:22.813Z,11.08
2019-04-06T09:44:40.949Z,10.80
2019-04-06T09:45:46.481Z,10.90
2019-04-06T09:47:10.283Z,11.20
2019-04-06T09:48:18.418Z,11.00
2019-04-06T09:49:39.926Z,10.70
2019-04-06T09:51:01.093Z,10.00
2019-04-06T09:52:06.372Z,9.20
2019-04-06T09:53:17.843Z,7.65
2019-04-06T09:54:38.425Z,8.63
2019-04-06T09:55:55.547Z,7.45
2019-04-06T09:57:03.846Z,8.88
2019-04-06T09:58:15.395Z,8.20
2019-04-06T09:59:34.874Z,7.95
2019-04-06T10:00:34.225Z,9.13
2019-04-06T10:01:39.727Z,11.08
2019-04-06T10:02:45.014Z,8.58
2019-04-06T10:03:56.380Z,11.25
2019-04-06T10:05:07.517Z,8.85
2019-04-06T10:06:32.424Z,10.08
2019-04-06T10:07:43.593Z,8.78
2019-04-06T10:08:57.185Z,7.87
2019-04-06T10:10:02.806Z,11.33
2019-04-06T10:11:08.437Z,8.55
2019-04-06T10:12:32.317Z,7.37
2019-04-06T10:13:37.598Z,7.50
2019-04-06T10:14:45.590Z,8.10
2019-04-06T10:15:56.964Z,10.25
2019-04-06T10:17:11.320Z,12.20
2019-04-06T10:18:19.265Z,7.65
2019-04-06T10:19:42.744Z,7.35
2019-04-06T10:20:51.047Z,7.78
2019-04-06T10:21:56.391Z,9.15
2019-04-06T10:23:01.753Z,8.33
2019-04-06T10:24:19.120Z,7.62
2019-04-06T10:25:39.478Z,7.80
2019-04-06T10:26:48.326Z,9.13
2019-04-06T10:27:56.243Z,10.38
2019-04-06T10:29:04.429Z,8.58
2019-04-06T10:30:22.430Z,9.10
2019-04-06T10:31:27.725Z,7.45
2019-04-06T10:32:48.867Z,7.97
2019-04-06T10:33:54.080Z,12.50
2019-04-06T10:35:02.173Z,8.83
2019-04-06T10:36:24.871Z,7.75
2019-04-06T10:37:45.238Z,11.63
2019-04-06T10:38:56.286Z,10.13
2019-04-06T10:40:01.556Z,9.60
2019-04-06T10:41:06.861Z,8.80
2019-04-06T10:42:12.414Z,8.63
2019-04-06T10:43:27.360Z,8.38
2019-04-06T10:44:32.727Z,8.03
2019-04-06T10:45:43.848Z,11.97
2019-04-06T10:46:49.166Z,6.65
2019-04-06T10:48:06.633Z,8.35
2019-04-06T10:49:27.556Z,8.48
2019-04-06T10:50:44.733Z,9.48
2019-04-06T10:52:06.331Z,8.55
2019-04-06T10:53:20.856Z,8.58
2019-04-06T10:54:34.513Z,8.23
2019-04-06T10:55:39.852Z,8.08
2019-04-06T10:56:45.426Z,9.70
2019-04-06T10:57:50.733Z,10.00
2019-04-06T10:59:15.261Z,8.48
2019-04-06T11:00:23.758Z,14.10
2019-04-06T11:01:29.037Z,7.20
2019-04-06T11:02:47.242Z,10.38
2019-04-06T11:03:52.535Z,11.07
2019-04-06T11:04:58.217Z,9.45
2019-04-06T11:06:06.171Z,12.13
2019-04-06T11:07:30.179Z,7.37
2019-04-06T11:08:47.855Z,12.10
2019-04-06T11:09:59.143Z,8.63
2019-04-06T11:11:04.559Z,11.23
2019-04-06T11:12:19.404Z,12.93
2019-04-06T11:13:30.612Z,9.30
2019-04-06T11:14:36.551Z,10.07
2019-04-06T11:15:44.819Z,9.67
2019-04-06T11:17:17.847Z,9.60
2019-04-06T11:18:29.249Z,10.07
2019-04-06T11:19:49.629Z,9.37
2019-04-06T11:21:10.122Z,9.17
2019-04-06T11:22:33.885Z,12.03
2019-04-06T11:23:55.195Z,9.17
2019-04-06T11:25:15.666Z,7.70
2019-04-06T11:26:39.343Z,10.13
2019-04-06T11:27:47.247Z,8.30
2019-04-06T11:29:10.828Z,10.43
2019-04-06T11:30:19.192Z,8.47
2019-04-06T11:31:40.666Z,10.53
2019-04-06T11:32:51.855Z,8.27
2019-04-06T11:34:12.512Z,9.20
2019-04-06T11:35:32.366Z,9.33
2019-04-06T11:36:50.022Z,9.63
2019-04-06T11:37:57.874Z,7.87
2019-04-06T11:39:22.433Z,8.83
2019-04-06T11:40:44.153Z,9.40
2019-04-06T11:42:01.424Z,10.47
2019-04-06T11:43:31.148Z,8.47
2019-04-06T11:44:48.905Z,10.43
2019-04-06T11:46:13.118Z,6.90
2019-04-06T11:47:18.588Z,10.23
2019-04-06T11:48:23.928Z,9.33
2019-04-06T11:49:32.212Z,7.63
2019-04-06T11:50:55.836Z,11.37
2019-04-06T11:52:16.276Z,8.67
2019-04-06T11:53:27.277Z,8.23
2019-04-06T11:54:32.609Z,9.30
2019-04-06T11:55:54.107Z,8.17
2019-04-06T11:57:05.448Z,7.70
2019-04-06T11:58:23.055Z,9.53
2019-04-06T11:59:29.079Z,8.83
2019-04-06T12:00:50.606Z,9.10
2019-04-06T12:02:04.816Z,13.62
2019-04-06T12:03:16.075Z,11.00
2019-04-06T12:04:38.001Z,9.38
2019-04-06T12:05:49.200Z,9.00
2019-04-06T12:07:03.395Z,6.70
2019-04-06T12:08:08.906Z,8.88
2019-04-06T12:09:19.774Z,8.50
2019-04-06T12:10:25.079Z,8.93
2019-04-06T12:11:42.464Z,9.80
2019-04-06T12:12:55.696Z,8.13
2019-04-06T12:14:16.505Z,8.00
2019-04-06T12:15:36.835Z,12.80
2019-04-06T12:16:42.207Z,8.90
2019-04-06T12:18:06.006Z,9.80
2019-04-06T12:19:11.347Z,8.50
2019-04-06T12:20:32.882Z,10.05
2019-04-06T12:21:38.616Z,8.73
2019-04-06T12:22:43.993Z,7.85
2019-04-06T12:23:58.160Z,8.08
2019-04-06T12:25:19.823Z,8.65
2019-04-06T12:26:43.319Z,7.62
2019-04-06T12:28:04.942Z,8.70
2019-04-06T12:29:26.529Z,10.53
2019-04-06T12:30:38.477Z,10.00
2019-04-06T12:31:47.681Z,7.85
2019-04-06T12:32:52.961Z,8.20
2019-04-06T12:34:00.799Z,8.98
2019-04-06T12:35:07.837Z,7.47
2019-04-06T12:36:16.113Z,8.75
2019-04-06T12:37:21.764Z,9.13
2019-04-06T12:38:45.806Z,8.65
2019-04-06T12:39:54.736Z,7.30
2019-04-06T12:41:12.283Z,11.55
2019-04-06T12:42:17.478Z,8.40
2019-04-06T12:43:34.770Z,9.30
2019-04-06T12:44:40.045Z,10.35
2019-04-06T12:45:51.445Z,8.20
2019-04-06T12:47:03.024Z,7.95
2019-04-06T12:48:08.296Z,9.68
2019-04-06T12:49:16.705Z,5.78
2019-04-06T12:50:24.697Z,6.92
2019-04-06T12:51:30.060Z,11.40
2019-04-06T12:52:44.722Z,7.55
2019-04-06T12:54:02.570Z,9.35
2019-04-06T12:55:17.291Z,8.15
2019-04-06T12:56:28.673Z,6.50
2019-04-06T12:57:50.616Z,10.70
2019-04-06T12:59:12.453Z,7.42
2019-04-06T13:00:23.817Z,6.87
2019-04-06T13:01:38.238Z,7.67
2019-04-06T13:02:59.853Z,6.70
2019-04-06T13:04:21.630Z,8.43
2019-04-06T13:05:38.911Z,9.43
2019-04-06T13:07:02.318Z,8.55
2019-04-06T13:08:07.620Z,8.60
2019-04-06T13:09:29.562Z,9.65
2019-04-06T13:10:46.675Z,11.83
2019-04-06T13:11:57.938Z,8.90
2019-04-06T13:13:12.232Z,8.38
2019-04-06T13:14:20.548Z,8.10
2019-04-06T13:15:28.839Z,7.37
2019-04-06T13:16:34.152Z,8.73
2019-04-06T13:17:57.937Z,8.55
2019-04-06T13:19:19.599Z,7.75
2019-04-06T13:20:32.460Z,8.25
2019-04-06T13:21:33.287Z,8.65
2019-04-06T13:22:54.927Z,7.92
2019-04-06T13:24:06.474Z,7.53
2019-04-06T13:25:21.324Z,7.42
2019-04-06T13:26:43.123Z,9.13
2019-04-06T13:28:04.591Z,8.48
2019-04-06T13:29:12.384Z,8.88
2019-04-06T13:30:17.776Z,8.08
2019-04-06T13:31:25.844Z,9.33
2019-04-06T13:32:34.593Z,7.37
2019-04-06T13:33:56.154Z,6.83
2019-04-06T13:35:10.527Z,7.97
2019-04-06T13:36:18.585Z,9.25
2019-04-06T13:37:40.069Z,8.25
2019-04-06T13:38:45.434Z,6.58
2019-04-06T13:39:50.702Z,7.17
2019-04-06T13:41:04.916Z,6.72
2019-04-06T13:42:19.063Z,8.05
2019-04-06T13:43:33.377Z,7.78
2019-04-06T13:44:38.739Z,10.95
2019-04-06T13:45:44.013Z,7.95
2019-04-06T13:47:05.505Z,8.78
2019-04-06T13:48:27.207Z,6.28
2019-04-06T13:49:35.315Z,7.42
2019-04-06T13:50:40.585Z,7.72
2019-04-06T13:51:46.213Z,8.18
2019-04-06T13:52:57.541Z,7.72
2019-04-06T13:54:11.846Z,8.88
2019-04-06T13:55:28.782Z,6.72
2019-04-06T13:56:34.322Z,8.43
2019-04-06T13:57:39.671Z,8.17
2019-04-06T13:58:57.402Z,6.73
2019-04-06T14:00:11.605Z,7.27
2019-04-06T14:01:19.860Z,7.57
2019-04-06T14:02:43.681Z,7.20
2019-04-06T14:04:03.839Z,7.23
2019-04-06T14:05:18.526Z,6.17
2019-04-06T14:06:27.097Z,7.43
2019-04-06T14:07:32.321Z,7.23
2019-04-06T14:08:46.859Z,8.40
2019-04-06T14:09:58.685Z,9.00
2019-04-06T14:11:20.472Z,6.07
2019-04-06T14:12:26.140Z,9.07
2019-04-06T14:13:34.556Z,6.40
2019-04-06T14:14:48.959Z,6.63
2019-04-06T14:15:54.492Z,7.40
2019-04-06T14:17:12.004Z,6.37
2019-04-06T14:18:17.287Z,7.87
2019-04-06T14:19:38.869Z,8.70
2019-04-06T14:20:52.704Z,10.53
2019-04-06T14:22:01.345Z,9.80
2019-04-06T14:23:21.778Z,8.33
2019-04-06T14:24:27.298Z,12.03
2019-04-06T14:25:35.654Z,8.97
2019-04-06T14:26:49.999Z,11.57